MUC | München Airways

 METAR UND TAF INFORMATION

METAR FOR LGMK
ADDS - METARS form results

(0928 UTC 21 May 2019)
Data provider http://aviationweather.gov/metar/data/
 
METAR text: LGMK 210920Z 15011KT 9999 FEW040 23/15 Q1014
Conditions at: LGMK (MIKONOS ISLAND , GR) observed 0920 UTC 21 May 2019
Temperature: 23.0°C (73°F)
Dewpoint: 15.0°C (59°F) [RH = 61%]
Pressure (altimeter): 29.94 inches Hg (1014.0 mb)
Winds: from the SSE (150 degrees) at 13 MPH (11 knots; 5.7 m/s)
Visibility: 6 or more miles (10+ km)
Ceiling: at least 12,000 feet AGL
Clouds: few clouds at 4000 feet AGL
Weather: no significant weather observed at this time

METAR text: LGMK 210850Z 15010KT 9999 SCT040 23/15 Q1014
Conditions at: LGMK (MIKONOS ISLAND , GR) observed 0850 UTC 21 May 2019
Temperature: 23.0°C (73°F)
Dewpoint: 15.0°C (59°F) [RH = 61%]
Pressure (altimeter): 29.94 inches Hg (1014.0 mb)
Winds: from the SSE (150 degrees) at 12 MPH (10 knots; 5.1 m/s)
Visibility: 6 or more miles (10+ km)
Ceiling: at least 12,000 feet AGL
Clouds: scattered clouds at 4000 feet AGL
Weather: no significant weather observed at this time

Forecast for: LGMK (MIKONOS ISLAND , GR)
Text: TAF LGMK 210800Z 2109/2118 22013KT 9999 FEW020
Forecast period: 0900 to 1800 UTC 21 May 2019
Forecast type: FROM: standard forecast or significant change
Winds: from the SW (220 degrees) at 15 MPH (13 knots; 6.7 m/s)
Visibility: 6 or more miles 10+ km)
Ceiling: at least 12,000 feet AGL
Clouds: few clouds at 2000 feet AGL
Weather: no significant weather forecast for this period
Text: TEMPO 2112/2115 22015G25KT
Forecast period: 1200 to 1500 UTC 21 May 2019
Forecast type: TEMPORARY: The following changes expected for less than half the time period
Winds: from the SW (220 degrees) at 17 MPH (15 knots; 7.7 m/s)
gusting to 29 MPH (25 knots; 12.9 m/s)
Visibility: missing
Ceiling: unknown
Clouds: missing
Weather: no significant weather forecast for this period

 FLUGHAFENKARTE

 RUNWAY INFORMATION
Runway 16 Runway length 6244 ft Runway width 98 ft
Runway elevation 395 ft Runway displaced threshold 0 ft Runway heading 160
Runway 34 Runway length 6244 ft Runway width 98 ft
Runway elevation 388 ft Runway displaced threshold 0 ft Runway heading 340

 AIRPORT FREQUENCIES
Type A/G Name RDO Frequency 563.7 MHZ
Type APP Name APP Frequency 118.75 MHZ
Type TWR Name TWR Frequency 118.75 MHZ

 AIRPORT NEAR NAVIGATION AIDS
Type VOR-DME Name Mikonos Frequency 110000 KHZ
Type NDB Name Mikonos Frequency 401 KHZ